Alvarado, TX

6:30 AM CST on January 29, 2015 (GMT -0600)
Alvarado | Change Station
CLOSE
Current Station
Personal Weather Station
Location: Alvarado, TX
Elevation: 777 ft
Nearby Weather Stations

Elev 777 ft 32.43 °N, 97.22 °W | Updated 14 minutes ago

Clear
Clear
49.1 °F
Feels Like 49 °F
N
1.0
Wind Variable Wind from North
Gusts 4.0 mph

Today
High -- | Low -- °F
--% Chance of Precip.
Yesterday
High -- | Low -- °F
Precip. -- in
7:25 AM 5:59 PM
Waxing Gibbous, 74% visible
Pressure 30.15 in
Visibility 10.0 miles
Clouds Clear
Windchill 49 °F
Dew Point 41 °F
Humidity 73%
Rainfall 0.00 in
Snow Depth Not available.
UV 0 out of 12
Pollen 8.20 out of 12
Air Quality Not available.
Flu Activity Not available.
METAR KFWS 291215Z AUTO 00000KT 10SM CLR 10/04 A3015 RMK AO2 T01010042

More Conditions Fewer Conditions

Pressure 30.15 in
Visibility 10.0 miles
Clouds Clear
Windchill 49 °F
Dew Point 41 °F
Humidity 73%
Rainfall 0.00 in
Snow Depth Not available.
UV 0 out of 12
Pollen 8.20 out of 12
Air Quality Not available.
Flu Activity Not available.
METAR KFWS 291215Z AUTO 00000KT 10SM CLR 10/04 A3015 RMK AO2 T01010042

More Conditions Fewer Conditions

10-Day Weather Forecast

Almanac

Astronomy

Jan. 29, 2015 Rise Set
Actual Time
Civil Twilight
Nautical Twilight
Astronomical Twilight
Moon
Length of Visible Light
Length of Day
Tomorrow will be .
, % of the Moon is Illuminated

Today's Extremes

State Highs State Lows

Community

WunderPhotos

Upload Photos

1,791,421 photos uploaded!

WunderBlogs® & News

Nearby

Air Quality

  Air Quality AQ Index Pollutant
Not available.

Snow Depth

Station Depth Elevation

Earthquake Activity

City Distance Mag. Time & Date
Minimum magnitude displayed is 2.5.

Coastal Water Temperatures

Place Temperature

Nearby Weather Stations